Time;durP1;ratioP1;P1;durP2;ratioP2;P2;SDS_P1;SDS_P2;PMS_P1;PMS_P2;Temp;Humidity;BMP_temperature;BMP_pressure;BME280_temperature;BME280_humidity;BME280_pressure;Samples;Min_cycle;Max_cycle;Signal;HPM_P1;HPM_P2
2023/11/28 00:01:47;;;;;;;30.52;28.52;;;9.80;99.90;;;;;;4993137;28;20038;-71
2023/11/28 00:04:13;;;;;;;32.88;30.30;;;9.80;99.90;;;;;;4993566;28;20677;-71
2023/11/28 00:06:39;;;;;;;57.47;53.88;;;9.70;99.90;;;;;;4992287;28;20384;-71
2023/11/28 00:09:05;;;;;;;31.23;28.75;;;9.60;99.90;;;;;;4992130;28;20038;-71
2023/11/28 00:11:32;;;;;;;28.55;26.00;;;9.60;99.90;;;;;;4993307;28;20383;-71
2023/11/28 00:13:59;;;;;;;29.80;27.73;;;9.60;99.90;;;;;;4993898;28;20030;-70
2023/11/28 00:16:25;;;;;;;33.67;30.92;;;9.60;99.90;;;;;;4992693;28;20046;-71
2023/11/28 00:18:51;;;;;;;31.08;28.88;;;9.60;99.90;;;;;;4992246;28;20041;-71
2023/11/28 00:21:17;;;;;;;59.80;55.95;;;9.60;99.90;;;;;;5002328;28;20490;-71
2023/11/28 00:23:43;;;;;;;28.02;26.20;;;9.60;99.90;;;;;;5012753;28;20045;-71
2023/11/28 00:26:09;;;;;;;28.60;26.58;;;9.60;99.90;;;;;;5012524;28;20049;-71
2023/11/28 00:28:36;;;;;;;29.63;27.63;;;9.60;99.90;;;;;;5011880;28;20034;-71
2023/11/28 00:31:02;;;;;;;38.80;36.35;;;9.60;99.90;;;;;;5010667;28;20044;-71
2023/11/28 00:33:28;;;;;;;37.20;34.70;;;9.60;99.90;;;;;;5011623;28;20045;-71
2023/11/28 00:35:54;;;;;;;63.15;59.38;;;9.70;99.90;;;;;;5011078;28;20041;-71
2023/11/28 00:38:21;;;;;;;34.22;31.75;;;9.70;99.90;;;;;;5012558;28;20049;-71
2023/11/28 00:40:48;;;;;;;31.70;29.42;;;9.70;99.90;;;;;;5012031;28;20033;-71
2023/11/28 00:43:16;;;;;;;33.22;31.00;;;9.70;99.90;;;;;;5012550;28;20026;-71
2023/11/28 00:45:43;;;;;;;37.53;34.92;;;9.60;99.90;;;;;;5011718;28;20042;-71
2023/11/28 00:48:12;;;;;;;39.72;37.15;;;9.60;99.90;;;;;;5011336;28;20042;-72
2023/11/28 00:50:38;;;;;;;33.88;31.27;;;9.50;99.90;;;;;;5012187;28;20052;-75
2023/11/28 00:53:04;;;;;;;35.47;33.17;;;9.40;99.90;;;;;;5012362;28;20034;-78
2023/11/28 00:55:30;;;;;;;35.25;32.75;;;9.50;99.90;;;;;;5012104;28;20038;-78
2023/11/28 00:57:56;;;;;;;34.72;32.15;;;9.50;99.90;;;;;;5012630;28;20045;-78
2023/11/28 01:00:22;;;;;;;32.90;30.60;;;9.50;99.90;;;;;;5011823;28;20034;-78
2023/11/28 01:02:48;;;;;;;36.20;33.83;;;9.50;99.90;;;;;;5012093;28;20126;-77
2023/11/28 01:05:15;;;;;;;27.63;25.65;;;9.40;99.90;;;;;;5012230;28;20026;-79
2023/11/28 01:07:41;;;;;;;30.20;27.95;;;9.40;99.90;;;;;;5012303;28;20042;-78
2023/11/28 01:10:07;;;;;;;29.90;28.00;;;9.40;99.90;;;;;;5012503;28;20459;-78
2023/11/28 01:12:33;;;;;;;29.48;27.52;;;9.40;99.90;;;;;;5012083;28;20053;-78
2023/11/28 01:14:59;;;;;;;29.60;27.23;;;9.40;99.90;;;;;;5012391;28;20026;-78
2023/11/28 01:17:26;;;;;;;25.60;23.88;;;9.50;99.90;;;;;;5011315;28;20052;-78
2023/11/28 01:19:52;;;;;;;34.20;32.05;;;9.50;99.90;;;;;;5012495;28;20030;-78
2023/11/28 01:22:18;;;;;;;36.30;34.08;;;9.50;99.90;;;;;;4994002;28;20414;-77
2023/11/28 01:24:44;;;;;;;40.67;38.17;;;9.40;99.90;;;;;;4992592;28;20050;-76
2023/11/28 01:27:10;;;;;;;54.28;51.13;;;9.40;99.90;;;;;;4991467;28;20050;-77
2023/11/28 01:29:36;;;;;;;53.65;50.72;;;9.40;99.90;;;;;;4992662;28;20031;-76
2023/11/28 01:32:03;;;;;;;36.88;34.45;;;9.40;99.90;;;;;;4992124;28;20034;-76
2023/11/28 01:34:29;;;;;;;32.25;30.20;;;9.30;99.90;;;;;;4994271;28;20383;-76
2023/11/28 01:36:55;;;;;;;29.45;27.58;;;9.20;99.90;;;;;;4991866;28;20035;-76
2023/11/28 01:39:21;;;;;;;29.60;27.60;;;9.20;99.90;;;;;;4992720;28;20463;-76
2023/11/28 01:41:47;;;;;;;30.50;28.73;;;9.20;99.90;;;;;;4992416;28;20034;-76
2023/11/28 01:44:13;;;;;;;39.25;36.83;;;9.30;99.90;;;;;;4992395;28;20038;-77
2023/11/28 01:46:40;;;;;;;40.38;37.70;;;9.20;99.90;;;;;;4991827;28;20034;-77
2023/11/28 01:49:09;;;;;;;38.05;35.72;;;9.20;99.90;;;;;;4992628;28;20388;-77
2023/11/28 01:51:35;;;;;;;48.10;45.35;;;9.20;99.90;;;;;;4990660;28;20395;-70
2023/11/28 01:54:02;;;;;;;32.03;30.10;;;9.20;99.90;;;;;;4991265;28;20023;-70
2023/11/28 01:56:29;;;;;;;38.60;35.90;;;9.10;99.90;;;;;;4992224;28;20049;-70
2023/11/28 01:58:55;;;;;;;43.00;40.70;;;9.10;99.90;;;;;;4992185;28;20049;-70
2023/11/28 02:01:21;;;;;;;46.47;43.85;;;9.10;99.90;;;;;;4990337;28;20034;-70
2023/11/28 02:03:48;;;;;;;38.83;36.58;;;9.10;99.90;;;;;;4991052;28;20038;-70
2023/11/28 02:06:14;;;;;;;34.60;32.47;;;9.10;99.90;;;;;;4990554;28;20037;-70
2023/11/28 02:08:41;;;;;;;36.80;34.22;;;9.20;99.90;;;;;;4993119;28;20034;-70
2023/11/28 02:11:07;;;;;;;39.00;36.35;;;9.10;99.90;;;;;;4995508;28;20391;-70
2023/11/28 02:13:34;;;;;;;42.08;39.55;;;9.10;99.90;;;;;;4995748;28;20030;-70
2023/11/28 02:16:17;;;;;;;33.47;31.38;;;9.20;99.90;;;;;;4994880;28;20034;-69
2023/11/28 02:18:43;;;;;;;40.58;37.85;;;9.20;99.90;;;;;;4994281;28;20066;-70
2023/11/28 02:21:10;;;;;;;44.05;41.15;;;9.30;99.90;;;;;;5002020;28;20045;-70
2023/11/28 02:23:37;;;;;;;33.92;31.40;;;9.10;99.90;;;;;;5014014;28;20022;-70
2023/11/28 02:26:25;;;;;;;41.80;38.83;;;9.10;99.90;;;;;;5014593;28;20041;-70
2023/11/28 02:28:51;;;;;;;32.85;30.92;;;9.10;99.90;;;;;;5013159;28;20087;-70
2023/11/28 02:31:17;;;;;;;30.73;28.27;;;9.10;99.90;;;;;;5014205;28;20038;-70
2023/11/28 02:33:44;;;;;;;29.23;27.42;;;9.00;99.90;;;;;;5013533;28;20026;-70
2023/11/28 02:36:10;;;;;;;28.23;25.85;;;8.90;99.90;;;;;;5013365;28;20041;-70
2023/11/28 02:38:36;;;;;;;28.70;26.85;;;8.90;99.90;;;;;;5015074;28;20041;-70
2023/11/28 02:41:02;;;;;;;30.60;28.50;;;8.90;99.90;;;;;;5013152;28;20034;-70
2023/11/28 02:43:29;;;;;;;26.65;24.67;;;8.80;99.90;;;;;;5014795;28;20478;-70
2023/11/28 02:45:55;;;;;;;27.83;26.02;;;8.80;99.90;;;;;;5012691;28;20037;-70
2023/11/28 02:48:22;;;;;;;26.70;25.00;;;8.70;99.90;;;;;;5013452;28;20080;-70
2023/11/28 02:50:48;;;;;;;34.92;32.70;;;8.70;99.90;;;;;;5014124;28;20030;-70
2023/11/28 02:53:14;;;;;;;28.13;26.17;;;8.60;99.90;;;;;;5013440;28;20026;-70
2023/11/28 02:55:40;;;;;;;28.58;26.67;;;8.60;99.90;;;;;;5014152;28;20048;-77
2023/11/28 02:58:06;;;;;;;24.90;23.15;;;8.60;99.90;;;;;;5013390;28;20077;-77
2023/11/28 03:00:33;;;;;;;26.40;24.85;;;8.50;99.90;;;;;;5013933;28;20486;-76
2023/11/28 03:02:59;;;;;;;24.20;22.77;;;8.50;99.90;;;;;;5014054;28;20081;-76
2023/11/28 03:05:25;;;;;;;26.27;24.50;;;8.50;99.90;;;;;;5004589;28;20048;-76
2023/11/28 03:07:52;;;;;;;25.75;23.80;;;8.50;99.90;;;;;;5014605;28;20065;-76
2023/11/28 03:10:19;;;;;;;25.30;23.65;;;8.50;99.90;;;;;;5013784;28;20050;-76
2023/11/28 03:12:45;;;;;;;24.33;22.77;;;8.60;99.90;;;;;;5014319;28;20034;-77
2023/11/28 03:15:11;;;;;;;25.33;23.52;;;8.60;99.90;;;;;;5009588;28;20033;-78
2023/11/28 03:17:37;;;;;;;24.52;22.67;;;8.60;99.90;;;;;;5001514;28;20040;-76
2023/11/28 03:20:04;;;;;;;23.13;21.67;;;8.50;99.90;;;;;;5013085;28;20025;-77
2023/11/28 03:22:31;;;;;;;26.80;25.13;;;8.50;99.90;;;;;;4994326;28;20501;-77
2023/11/28 03:25:07;;;;;;;20.83;19.48;;;8.40;99.90;;;;;;4994425;28;20050;-77
2023/11/28 03:27:34;;;;;;;27.08;25.40;;;8.40;99.90;;;;;;5012813;28;20041;-76
2023/11/28 03:30:00;;;;;;;23.40;22.00;;;8.30;99.90;;;;;;5013048;28;20029;-76
2023/11/28 03:32:26;;;;;;;27.55;25.63;;;8.30;99.90;;;;;;5012747;28;20391;-76
2023/11/28 03:34:52;;;;;;;25.48;23.85;;;8.40;99.90;;;;;;5013826;28;20037;-76
2023/11/28 03:37:18;;;;;;;30.58;28.77;;;8.30;99.90;;;;;;5011760;28;20486;-77
2023/11/28 03:39:44;;;;;;;29.40;27.58;;;8.20;99.90;;;;;;5012634;28;20403;-76
2023/11/28 03:42:10;;;;;;;21.95;20.55;;;8.20;99.90;;;;;;5013459;28;20033;-76
2023/11/28 03:44:37;;;;;;;25.23;23.45;;;8.30;99.90;;;;;;5013691;28;20497;-77
2023/11/28 03:47:03;;;;;;;24.10;22.65;;;8.30;99.90;;;;;;5012281;28;20037;-76
2023/11/28 03:49:31;;;;;;;25.80;24.13;;;8.30;99.90;;;;;;5013726;28;20041;-76
2023/11/28 03:51:57;;;;;;;26.87;25.33;;;8.20;99.90;;;;;;5013371;28;20501;-76
2023/11/28 03:54:23;;;;;;;25.27;23.58;;;8.30;99.90;;;;;;5013398;28;20046;-77
2023/11/28 03:56:49;;;;;;;24.67;23.10;;;8.20;99.90;;;;;;5012868;28;20402;-70
2023/11/28 03:59:17;;;;;;;24.65;22.92;;;8.20;99.90;;;;;;5013319;28;20045;-70
2023/11/28 04:01:43;;;;;;;23.17;21.52;;;8.20;99.90;;;;;;5012291;28;20044;-70
2023/11/28 04:04:09;;;;;;;28.15;26.35;;;8.10;99.90;;;;;;5011982;28;20038;-70
2023/11/28 04:06:36;;;;;;;27.55;25.42;;;8.10;99.90;;;;;;5011178;28;20033;-70
2023/11/28 04:09:02;;;;;;;26.85;25.10;;;8.00;99.90;;;;;;5013308;28;20387;-70
2023/11/28 04:11:28;;;;;;;26.58;24.83;;;7.90;99.90;;;;;;5011667;28;20029;-71
2023/11/28 04:13:54;;;;;;;33.50;31.45;;;7.80;99.90;;;;;;4995569;28;20072;-70
2023/11/28 04:16:20;;;;;;;34.15;32.08;;;7.80;99.90;;;;;;5001920;28;20053;-70
2023/11/28 04:18:50;;;;;;;42.88;40.50;;;7.70;99.90;;;;;;4992378;28;20522;-70
2023/11/28 04:21:17;;;;;;;44.15;41.42;;;7.70;99.90;;;;;;5000965;28;20033;-70
2023/11/28 04:23:43;;;;;;;30.73;28.95;;;7.70;99.90;;;;;;5011888;28;20025;-70
2023/11/28 04:26:10;;;;;;;29.38;27.67;;;7.80;99.90;;;;;;5003982;28;20050;-70
2023/11/28 04:28:36;;;;;;;28.90;27.15;;;7.80;99.90;;;;;;4993366;28;20039;-70
2023/11/28 04:31:02;;;;;;;26.98;25.27;;;7.80;99.90;;;;;;4990539;28;20046;-70
2023/11/28 04:33:29;;;;;;;26.48;24.88;;;7.70;99.90;;;;;;4993474;28;20031;-70
2023/11/28 04:35:55;;;;;;;43.45;40.90;;;7.80;99.90;;;;;;4991505;28;20037;-70
2023/11/28 04:38:22;;;;;;;37.10;34.78;;;7.80;99.90;;;;;;4992042;28;20038;-70
2023/11/28 04:40:48;;;;;;;33.17;30.73;;;7.80;99.90;;;;;;5006499;28;20038;-70
2023/11/28 04:43:14;;;;;;;33.78;31.20;;;7.90;99.90;;;;;;5012775;28;20049;-70
2023/11/28 04:45:40;;;;;;;27.42;25.33;;;7.90;99.90;;;;;;5009874;28;20038;-70
2023/11/28 04:48:06;;;;;;;35.10;32.53;;;7.90;99.90;;;;;;5012588;28;20418;-70
2023/11/28 04:50:33;;;;;;;38.50;36.40;;;7.80;99.90;;;;;;5012128;28;20033;-70
2023/11/28 04:52:59;;;;;;;47.92;45.25;;;7.80;99.90;;;;;;5011138;28;20052;-70
2023/11/28 04:55:25;;;;;;;38.95;36.67;;;7.80;99.90;;;;;;4992584;28;20027;-70
2023/11/28 04:57:51;;;;;;;45.08;42.20;;;7.80;99.90;;;;;;4979888;28;20495;-70
2023/11/28 05:00:17;;;;;;;48.83;46.10;;;7.70;99.90;;;;;;4992413;28;20042;-70
2023/11/28 05:02:43;;;;;;;50.50;47.25;;;7.70;99.90;;;;;;5006729;28;20379;-70
2023/11/28 05:05:09;;;;;;;45.55;42.80;;;7.70;99.90;;;;;;5006346;28;20041;-70
2023/11/28 05:07:36;;;;;;;51.88;49.17;;;7.70;99.90;;;;;;5001660;28;20031;-70
2023/11/28 05:10:03;;;;;;;50.35;47.00;;;7.80;99.90;;;;;;4991870;28;20037;-69
2023/11/28 05:12:29;;;;;;;58.50;54.85;;;7.70;99.90;;;;;;4991169;28;20428;-70
2023/11/28 05:14:55;;;;;;;59.60;56.40;;;7.70;99.90;;;;;;4991184;28;20364;-70
2023/11/28 05:17:21;;;;;;;58.13;54.47;;;7.70;99.90;;;;;;5007908;28;20044;-70
2023/11/28 05:19:47;;;;;;;47.35;44.85;;;7.70;99.90;;;;;;5012197;28;20498;-70
2023/11/28 05:22:14;;;;;;;44.67;42.03;;;7.70;99.90;;;;;;4994973;28;20030;-70
2023/11/28 05:24:40;;;;;;;57.20;53.83;;;7.70;99.90;;;;;;4999584;28;20030;-69
2023/11/28 05:27:06;;;;;;;56.35;53.03;;;7.70;99.90;;;;;;5011279;28;20037;-70
2023/11/28 05:29:32;;;;;;;50.25;47.28;;;7.70;99.90;;;;;;5010994;28;20033;-69
2023/11/28 05:31:58;;;;;;;51.90;49.15;;;7.60;99.90;;;;;;5010632;28;20479;-71
2023/11/28 05:34:24;;;;;;;56.88;52.63;;;7.60;99.90;;;;;;4998712;28;20482;-70
2023/11/28 05:36:50;;;;;;;39.45;37.13;;;7.60;99.90;;;;;;4994288;28;20399;-69
2023/11/28 05:39:17;;;;;;;514.40;66.88;;;7.60;99.90;;;;;;4991273;28;20046;-70
2023/11/28 05:41:43;;;;;;;40.25;30.80;;;7.60;99.90;;;;;;4991782;28;20039;-70
2023/11/28 05:44:09;;;;;;;682.00;70.13;;;7.60;99.90;;;;;;4995235;28;20030;-69
2023/11/28 05:46:35;;;;;;;1025.07;103.63;;;7.50;99.90;;;;;;4995202;28;20054;-78
2023/11/28 05:49:01;;;;;;;35.08;32.40;;;7.60;99.90;;;;;;4996272;28;20034;-77
2023/11/28 05:51:27;;;;;;;31.05;28.88;;;7.50;99.90;;;;;;4996071;28;20042;-79
2023/11/28 05:53:53;;;;;;;24.35;22.95;;;7.50;99.90;;;;;;4996101;28;20037;-78
2023/11/28 05:56:19;;;;;;;28.77;26.98;;;7.50;99.90;;;;;;4995666;28;20034;-78
2023/11/28 05:58:45;;;;;;;26.25;24.48;;;7.50;99.90;;;;;;4996018;28;20042;-77
2023/11/28 06:01:15;;;;;;;28.05;26.13;;;7.50;99.90;;;;;;4995980;28;20510;-78
2023/11/28 06:03:41;;;;;;;24.77;23.23;;;7.50;99.90;;;;;;4996086;28;20038;-78
2023/11/28 06:06:07;;;;;;;27.20;25.45;;;7.40;99.90;;;;;;4996695;28;20027;-78
2023/11/28 06:08:33;;;;;;;27.95;26.13;;;7.40;99.90;;;;;;4996009;28;20031;-77
2023/11/28 06:11:00;;;;;;;28.50;26.50;;;7.40;99.90;;;;;;4995232;28;20041;-78
2023/11/28 06:13:27;;;;;;;27.88;26.17;;;7.40;99.90;;;;;;4996370;28;20035;-78
2023/11/28 06:15:53;;;;;;;26.85;25.15;;;7.40;99.90;;;;;;5011570;28;20510;-78
2023/11/28 06:18:19;;;;;;;27.42;25.45;;;7.40;99.90;;;;;;5015354;28;20041;-78
2023/11/28 06:20:45;;;;;;;26.08;24.35;;;7.40;99.90;;;;;;5014635;28;20479;-78
2023/11/28 06:23:12;;;;;;;29.38;27.35;;;7.20;99.90;;;;;;5015170;28;20030;-79
2023/11/28 06:25:39;;;;;;;29.75;27.85;;;7.10;99.90;;;;;;5005279;28;20050;-78
2023/11/28 06:28:05;;;;;;;31.00;28.80;;;7.20;99.90;;;;;;5006429;28;20069;-78
2023/11/28 06:30:31;;;;;;;40.93;37.97;;;7.20;99.90;;;;;;5013472;28;20042;-78
2023/11/28 06:32:57;;;;;;;35.67;33.07;;;7.30;99.90;;;;;;5013831;28;20491;-78
2023/11/28 06:35:24;;;;;;;32.27;29.87;;;7.20;99.90;;;;;;5013139;28;20029;-78
2023/11/28 06:37:50;;;;;;;28.43;26.70;;;7.20;99.90;;;;;;5015168;28;20510;-78
2023/11/28 06:40:18;;;;;;;35.47;33.23;;;7.20;99.90;;;;;;5005249;28;20041;-78
2023/11/28 06:42:44;;;;;;;29.30;27.38;;;7.20;99.90;;;;;;5012687;28;20053;-78
2023/11/28 06:45:11;;;;;;;30.45;28.38;;;7.10;99.90;;;;;;4995030;28;20484;-78
2023/11/28 06:47:37;;;;;;;26.60;24.60;;;7.10;99.90;;;;;;5014894;28;20042;-78
2023/11/28 06:50:04;;;;;;;27.90;25.65;;;7.10;99.90;;;;;;5014700;28;20042;-70
2023/11/28 06:52:30;;;;;;;31.90;29.60;;;7.10;99.90;;;;;;4998146;28;20030;-70
2023/11/28 06:54:56;;;;;;;33.35;29.95;;;7.10;99.90;;;;;;4996555;28;20030;-70
2023/11/28 06:57:22;;;;;;;25.17;23.30;;;7.20;99.90;;;;;;5014308;28;20505;-70
2023/11/28 06:59:48;;;;;;;25.13;22.88;;;7.10;99.90;;;;;;5014654;28;20048;-70
2023/11/28 07:02:16;;;;;;;26.80;24.40;;;7.10;99.90;;;;;;4999589;28;20042;-70
2023/11/28 07:04:42;;;;;;;26.38;24.40;;;7.10;99.90;;;;;;4995175;28;20049;-70
2023/11/28 07:07:08;;;;;;;28.45;25.70;;;7.10;99.90;;;;;;4994765;28;20045;-70
2023/11/28 07:09:35;;;;;;;31.63;28.63;;;7.10;99.90;;;;;;4994344;28;20029;-70
2023/11/28 07:12:02;;;;;;;32.83;29.75;;;7.00;99.90;;;;;;4994668;28;20030;-70
2023/11/28 07:14:28;;;;;;;636.37;64.33;;;7.00;99.90;;;;;;4994743;28;20037;-70
2023/11/28 07:16:54;;;;;;;46.00;26.88;;;7.00;99.90;;;;;;4994046;28;20038;-70
2023/11/28 07:19:20;;;;;;;32.80;29.83;;;7.00;99.90;;;;;;4991668;28;20391;-70
2023/11/28 07:21:46;;;;;;;29.57;27.10;;;6.90;99.90;;;;;;4994448;28;20030;-70
2023/11/28 07:24:12;;;;;;;32.47;29.33;;;6.90;99.90;;;;;;4994001;28;20500;-70
2023/11/28 07:26:39;;;;;;;32.55;29.08;;;7.00;99.90;;;;;;4981955;28;20404;-70
2023/11/28 07:29:06;;;;;;;26.15;23.77;;;7.00;99.90;;;;;;4978521;28;20035;-70
2023/11/28 07:31:32;;;;;;;34.08;29.48;;;7.00;99.90;;;;;;4992492;28;20042;-70
2023/11/28 07:33:58;;;;;;;33.17;29.37;;;7.00;99.90;;;;;;4990330;28;20469;-70
2023/11/28 07:36:24;;;;;;;28.90;25.80;;;6.90;99.90;;;;;;4974333;28;20038;-70
2023/11/28 07:38:50;;;;;;;51.70;37.50;;;6.90;99.90;;;;;;4974528;28;20050;-71
2023/11/28 07:41:16;;;;;;;36.80;32.40;;;6.90;99.90;;;;;;4973688;28;20042;-70
2023/11/28 07:43:44;;;;;;;32.55;29.90;;;6.90;99.90;;;;;;4981994;28;20042;-70
2023/11/28 07:46:10;;;;;;;32.73;29.40;;;6.90;99.90;;;;;;4992099;28;20403;-70
2023/11/28 07:48:36;;;;;;;32.30;29.05;;;7.00;99.90;;;;;;4989891;28;20026;-70
2023/11/28 07:51:03;;;;;;;27.73;25.75;;;7.00;99.90;;;;;;4993704;28;20034;-70
2023/11/28 07:53:29;;;;;;;28.52;26.60;;;7.00;99.90;;;;;;4973055;28;20047;-70
2023/11/28 07:55:55;;;;;;;28.30;26.15;;;7.10;99.90;;;;;;4987394;28;20038;-71
2023/11/28 07:58:21;;;;;;;26.25;23.77;;;7.10;99.90;;;;;;4990971;28;20099;-70
2023/11/28 08:00:47;;;;;;;25.33;22.77;;;7.10;99.90;;;;;;4980844;28;20057;-70
2023/11/28 08:03:13;;;;;;;124.07;28.38;;;7.10;99.90;;;;;;4982644;28;20626;-70
2023/11/28 08:05:39;;;;;;;24.40;22.00;;;7.20;99.90;;;;;;4990866;28;20037;-70
2023/11/28 08:08:05;;;;;;;24.92;23.08;;;7.20;99.90;;;;;;4987375;28;20027;-70
2023/11/28 08:10:32;;;;;;;26.48;24.38;;;7.20;99.90;;;;;;4997162;28;20395;-70
2023/11/28 08:12:58;;;;;;;21.20;19.00;;;7.20;99.90;;;;;;5000849;28;20038;-70
2023/11/28 08:15:24;;;;;;;22.95;21.13;;;7.20;99.90;;;;;;4988609;28;20403;-70
2023/11/28 08:17:50;;;;;;;22.23;20.10;;;7.20;99.90;;;;;;4982826;28;20039;-71
2023/11/28 08:20:16;;;;;;;21.07;19.10;;;7.20;99.90;;;;;;4995881;28;20041;-70
2023/11/28 08:22:42;;;;;;;21.23;19.67;;;7.20;99.90;;;;;;5012164;28;20069;-70
2023/11/28 08:25:09;;;;;;;20.47;18.80;;;7.20;99.90;;;;;;4994546;28;20061;-70
2023/11/28 08:27:36;;;;;;;25.17;23.27;;;7.30;99.90;;;;;;4991816;28;20033;-70
2023/11/28 08:30:02;;;;;;;20.55;18.75;;;7.30;99.90;;;;;;4995525;28;20056;-69
2023/11/28 08:32:28;;;;;;;22.17;20.15;;;7.20;99.90;;;;;;4997133;28;20035;-70
2023/11/28 08:34:54;;;;;;;23.05;20.80;;;7.20;99.90;;;;;;4992791;28;20034;-70
2023/11/28 08:37:20;;;;;;;23.67;22.15;;;7.20;99.90;;;;;;4992671;28;20053;-70
2023/11/28 08:39:48;;;;;;;33.03;30.37;;;7.10;99.90;;;;;;4996817;28;20052;-73
2023/11/28 08:42:14;;;;;;;20.05;18.42;;;7.20;99.90;;;;;;4992344;28;20031;-70
2023/11/28 08:44:42;;;;;;;20.50;18.40;;;7.30;99.90;;;;;;4993504;28;20468;-70
2023/11/28 08:47:08;;;;;;;29.50;21.20;;;7.40;99.90;;;;;;4992437;28;20049;-70
2023/11/28 08:49:34;;;;;;;18.35;16.95;;;7.40;99.90;;;;;;4993035;28;20033;-70
2023/11/28 08:52:00;;;;;;;20.35;18.85;;;7.40;99.90;;;;;;5009848;28;20052;-69
2023/11/28 08:54:26;;;;;;;28.55;26.15;;;7.50;99.90;;;;;;5012707;28;20034;-70
2023/11/28 08:56:53;;;;;;;20.85;19.08;;;7.50;99.90;;;;;;5012041;28;20025;-70
2023/11/28 08:59:19;;;;;;;21.00;18.98;;;7.50;99.90;;;;;;5012657;28;20042;-70
2023/11/28 09:01:45;;;;;;;18.83;17.15;;;7.40;99.90;;;;;;4994618;28;20035;-70
2023/11/28 09:04:11;;;;;;;19.88;18.30;;;7.50;99.90;;;;;;4992986;28;20379;-70
2023/11/28 09:06:37;;;;;;;57.88;54.05;;;7.60;99.90;;;;;;4990959;28;20046;-70
2023/11/28 09:09:03;;;;;;;47.13;44.17;;;7.50;99.90;;;;;;4991614;28;20061;-71
2023/11/28 09:11:29;;;;;;;65.72;62.05;;;7.50;99.90;;;;;;4992574;28;20037;-70
2023/11/28 09:13:55;;;;;;;49.85;46.33;;;7.40;99.90;;;;;;4991673;28;20034;-71
2023/11/28 09:16:22;;;;;;;49.13;46.25;;;7.40;99.90;;;;;;4991812;28;20035;-70
2023/11/28 09:18:48;;;;;;;33.35;31.20;;;7.40;99.90;;;;;;4995116;28;20038;-70
2023/11/28 09:21:14;;;;;;;29.35;27.27;;;7.40;99.90;;;;;;5008112;28;20398;-70
2023/11/28 09:23:40;;;;;;;29.05;26.60;;;7.50;99.90;;;;;;5016367;28;20041;-70
2023/11/28 09:26:06;;;;;;;53.63;50.10;;;7.40;99.90;;;;;;5014693;28;20514;-70
2023/11/28 09:28:34;;;;;;;42.85;40.25;;;7.40;99.90;;;;;;5016501;28;20041;-70
2023/11/28 09:31:00;;;;;;;61.38;57.58;;;7.40;99.90;;;;;;5005488;28;20054;-70
2023/11/28 09:33:26;;;;;;;35.22;32.60;;;7.50;99.90;;;;;;4995264;28;20030;-70
2023/11/28 09:35:53;;;;;;;73.10;68.68;;;7.60;99.90;;;;;;4995969;28;20038;-70
2023/11/28 09:38:19;;;;;;;38.55;35.88;;;7.60;99.90;;;;;;4979327;28;20057;-70
2023/11/28 09:40:45;;;;;;;37.30;34.70;;;7.70;99.90;;;;;;5003877;28;20045;-70
2023/11/28 09:43:12;;;;;;;30.30;28.02;;;7.70;99.90;;;;;;5015992;28;20025;-70
2023/11/28 09:45:40;;;;;;;30.70;27.60;;;7.80;99.90;;;;;;5013772;28;20026;-70
2023/11/28 09:48:10;;;;;;;25.48;19.83;;;7.90;99.90;;;;;;5014603;28;20387;-70
2023/11/28 09:50:38;;;;;;;26.15;21.13;;;8.00;99.90;;;;;;5007627;28;20037;-76
2023/11/28 09:53:04;;;;;;;30.05;26.70;;;8.20;99.90;;;;;;4997546;28;20054;-77
2023/11/28 09:55:30;;;;;;;30.90;28.35;;;8.40;99.90;;;;;;4994442;28;20981;-77
2023/11/28 09:57:57;;;;;;;37.22;34.40;;;8.60;99.90;;;;;;4996674;28;20057;-76
2023/11/28 10:00:23;;;;;;;30.02;28.15;;;8.50;99.90;;;;;;4975462;28;20492;-77
2023/11/28 10:02:50;;;;;;;30.95;28.98;;;8.60;99.90;;;;;;4995462;28;20038;-78
2023/11/28 10:05:18;;;;;;;43.42;40.72;;;8.70;99.90;;;;;;4991599;28;20484;-78
2023/11/28 10:07:47;;;;;;;39.38;37.13;;;8.70;99.90;;;;;;4985037;28;20054;-78
2023/11/28 10:10:13;;;;;;;48.35;45.67;;;8.80;99.90;;;;;;4981679;28;20049;-78
2023/11/28 10:12:39;;;;;;;75.28;71.40;;;8.90;99.90;;;;;;4992496;28;20066;-78
2023/11/28 10:15:07;;;;;;;54.13;51.13;;;9.00;99.90;;;;;;4992948;28;20034;-78
2023/11/28 10:17:33;;;;;;;59.33;54.63;;;9.10;99.90;;;;;;4989805;28;20042;-78
2023/11/28 10:20:09;;;;;;;50.35;46.03;;;9.00;99.90;;;;;;4983176;28;20503;-78
2023/11/28 10:22:35;;;;;;;57.05;53.72;;;9.10;99.90;;;;;;4995198;28;20042;-78
2023/11/28 10:25:06;;;;;;;48.83;46.28;;;9.20;99.90;;;;;;4992987;28;20062;-78
2023/11/28 10:27:39;;;;;;;58.05;54.78;;;9.30;99.90;;;;;;4991519;28;20041;-78
2023/11/28 10:30:12;;;;;;;63.08;59.70;;;9.40;99.90;;;;;;4993773;28;20045;-77
2023/11/28 10:32:38;;;;;;;68.28;64.70;;;9.40;99.90;;;;;;5006696;28;20038;-77
2023/11/28 10:35:05;;;;;;;56.70;53.60;;;9.50;99.90;;;;;;4990553;28;20042;-77
2023/11/28 10:37:38;;;;;;;67.03;63.45;;;9.40;99.90;;;;;;4981284;28;20041;-77
2023/11/28 10:40:11;;;;;;;51.10;48.25;;;9.60;99.90;;;;;;4993743;28;20046;-77
2023/11/28 10:42:39;;;;;;;52.63;49.88;;;9.60;99.90;;;;;;5007202;28;20023;-78
2023/11/28 10:45:06;;;;;;;42.83;40.35;;;9.90;99.90;;;;;;5002130;28;20035;-78
2023/11/28 10:47:33;;;;;;;37.13;34.55;;;9.80;99.90;;;;;;4992874;28;20042;-78
2023/11/28 10:49:59;;;;;;;39.70;37.08;;;9.70;99.90;;;;;;4993786;28;20421;-77
2023/11/28 10:52:27;;;;;;;46.03;43.28;;;9.70;99.90;;;;;;4989104;28;20031;-78
2023/11/28 10:54:57;;;;;;;39.85;37.58;;;9.70;99.90;;;;;;4987001;28;20521;-70
2023/11/28 10:57:30;;;;;;;36.75;34.20;;;9.70;99.90;;;;;;4990296;28;20033;-70
2023/11/28 11:00:00;;;;;;;33.97;31.85;;;9.80;99.90;;;;;;4983351;28;20034;-70
2023/11/28 11:02:26;;;;;;;50.17;47.42;;;9.70;99.90;;;;;;5005885;28;20034;-71
2023/11/28 11:04:52;;;;;;;52.53;49.80;;;9.80;99.90;;;;;;4993168;28;20614;-70
2023/11/28 11:07:18;;;;;;;42.70;40.28;;;9.90;99.90;;;;;;4973268;28;20043;-71
2023/11/28 11:09:44;;;;;;;42.22;39.45;;;9.80;99.90;;;;;;4981571;28;20471;-70
2023/11/28 11:12:10;;;;;;;41.28;38.60;;;9.80;99.90;;;;;;4993074;28;20472;-70
2023/11/28 11:15:04;;;;;;;55.03;51.88;;;10.10;99.90;;;;;;4992941;28;20034;-70
2023/11/28 11:18:04;;;;;;;44.88;42.33;;;10.20;99.90;;;;;;4992230;28;20039;-70
2023/11/28 11:20:31;;;;;;;40.35;37.90;;;10.10;99.90;;;;;;4992501;28;20034;-70
2023/11/28 11:23:00;;;;;;;44.85;42.40;;;10.00;99.90;;;;;;4992913;28;20459;-70
2023/11/28 11:25:43;;;;;;;38.83;36.67;;;9.90;99.90;;;;;;4992644;28;20379;-70
2023/11/28 11:28:09;;;;;;;39.63;37.08;;;10.00;99.90;;;;;;4992784;28;20034;-70
2023/11/28 11:30:39;;;;;;;48.28;45.13;;;10.10;99.90;;;;;;4991331;28;20030;-71
2023/11/28 11:33:07;;;;;;;51.88;48.90;;;10.40;99.90;;;;;;5008843;28;20554;-70
2023/11/28 11:36:01;;;;;;;57.95;54.85;;;10.70;99.90;;;;;;4997667;28;20018;-70
2023/11/28 11:38:28;;;;;;;64.03;60.55;;;10.80;99.90;;;;;;4991540;28;20027;-71
2023/11/28 11:40:55;;;;;;;74.63;70.60;;;10.80;99.90;;;;;;4984648;28;20054;-70
2023/11/28 11:43:22;;;;;;;70.43;66.78;;;10.70;99.90;;;;;;4988712;28;20038;-70
2023/11/28 11:45:48;;;;;;;80.32;76.28;;;10.70;99.90;;;;;;4990695;28;20038;-71
2023/11/28 11:48:27;;;;;;;66.38;62.75;;;10.50;99.90;;;;;;4987955;28;20034;-70
2023/11/28 11:50:53;;;;;;;59.15;55.90;;;10.50;99.90;;;;;;4979224;28;20037;-70
2023/11/28 11:53:20;;;;;;;67.90;64.22;;;10.60;99.90;;;;;;4973479;28;20377;-70
2023/11/28 11:55:46;;;;;;;71.93;67.97;;;10.50;99.90;;;;;;4990708;28;20034;-71
2023/11/28 11:58:16;;;;;;;68.03;64.30;;;10.50;99.90;;;;;;4992115;28;20399;-71
2023/11/28 12:00:42;;;;;;;76.18;72.15;;;10.70;99.90;;;;;;4976479;28;20038;-70
2023/11/28 12:03:08;;;;;;;85.25;80.80;;;10.80;99.90;;;;;;4986406;28;20066;-77
2023/11/28 12:05:37;;;;;;;70.55;66.90;;;11.00;99.90;;;;;;4991328;28;20038;-78
2023/11/28 12:08:04;;;;;;;75.82;71.90;;;11.00;99.90;;;;;;4992303;28;20043;-78
2023/11/28 12:10:30;;;;;;;75.00;70.95;;;10.60;99.90;;;;;;4992840;28;20042;-77
2023/11/28 12:12:56;;;;;;;64.82;61.10;;;10.40;99.90;;;;;;4990822;28;20034;-75
2023/11/28 12:15:22;;;;;;;63.90;60.45;;;10.30;99.90;;;;;;4983819;28;20030;-75
2023/11/28 12:17:50;;;;;;;63.90;60.42;;;10.50;99.90;;;;;;4984687;28;20039;-75
2023/11/28 12:20:16;;;;;;;124.95;118.35;;;10.50;99.90;;;;;;4995404;28;20057;-75
2023/11/28 12:22:43;;;;;;;72.72;68.55;;;10.70;99.90;;;;;;4992492;28;20034;-75
2023/11/28 12:25:18;;;;;;;85.40;80.97;;;10.70;99.90;;;;;;4992324;28;20042;-75
2023/11/28 12:27:47;;;;;;;101.75;96.30;;;10.90;99.90;;;;;;4980083;28;20038;-75
2023/11/28 12:30:13;;;;;;;113.68;107.80;;;11.40;99.90;;;;;;4993253;28;20026;-75
2023/11/28 12:32:40;;;;;;;121.50;115.22;;;11.60;99.90;;;;;;4991077;28;20513;-75
2023/11/28 12:35:06;;;;;;;105.13;99.40;;;11.50;99.90;;;;;;4992598;28;20026;-75